Afric Star — A8KJ8 — position and weather

sailwx.info

Track history (hours):
 
Tides and Currents Weather Stations Pressure Air Temp Water Temp Dewpoint Dewpoint Depression Visibility Wind Speed Wind Dir Waves Ship Positions

Afric Star

Last reported at 2016-Aug-27 03:26 UTC. Time now 2016-Aug-29 00:14 UTC.
Position N 60°01' E 029°21'.

Length 158 m; draft 8.4 m.

Type: Cargo ship. MMSI: 636013069.

Date/timePositionNaut miles runAvg speedWind from/ knotsBaromVisibWave heightAir tempDewpointWater temp
2016-Aug-27 03:26N 60°01' E 029°21'0 0.0
2016-Aug-27 02:29N 60°01' E 029°21'0 0.0
2016-Aug-26 20:14N 60°01' E 029°21'0 0.0
2016-Aug-26 12:32N 60°01' E 029°21'5 0.4
2016-Aug-26 01:31N 60°01' E 029°12'1212.4
2016-Aug-26 00:34N 60°02' E 028°48'1514.8
2016-Aug-25 23:33N 60°05' E 028°20'1515.2
2016-Aug-25 22:33N 60°10' E 027°51'1615.0
2016-Aug-25 21:30N 60°03' E 027°22'1414.6
2016-Aug-25 20:33N 59°59' E 026°56'6315.4
2016-Aug-25 16:29N 59°47' E 024°54'2015.4
2016-Aug-25 15:10N 59°42' E 024°15'1015.2
2016-Aug-25 14:32N 59°39' E 023°57'1515.5
2016-Aug-25 13:32N 59°34' E 023°28'1715.5
2016-Aug-25 12:26N 59°29' E 022°56'1315.4
2016-Aug-25 11:33N 59°23' E 022°32'1615.6
2016-Aug-25 10:33N 59°13' E 022°08'1715.7
2016-Aug-25 09:30N 59°03' E 021°43'8115.6
2016-Aug-25 04:19N 57°58' E 020°11'1215.6
2016-Aug-25 03:33N 57°49' E 019°57'1615.6
2016-Aug-25 02:32N 57°36' E 019°38'1515.6
2016-Aug-25 01:33N 57°24' E 019°20'1515.4
2016-Aug-25 00:33N 57°12' E 019°03'1515.4
2016-Aug-24 23:33N 56°60' E 018°46'1515.1
2016-Aug-24 22:34N 56°48' E 018°29'1515.4
2016-Aug-24 21:33N 56°38' E 018°07'1815.7
2016-Aug-24 20:25N 56°27' E 017°41'1315.6
2016-Aug-24 19:34N 56°19' E 017°22'1615.5
2016-Aug-24 18:34N 56°10' E 017°00'1615.5
2016-Aug-24 17:33N 56°01' E 016°37'1515.3
2016-Aug-24 16:33N 55°53' E 016°14'1515.3
2016-Aug-24 15:34N 55°45' E 015°51'1615.6
2016-Aug-24 14:34N 55°38' E 015°26'1615.6
2016-Aug-24 13:34N 55°31' E 015°02'1515.3
2016-Aug-24 12:34N 55°23' E 014°38'1515.3
2016-Aug-24 11:34N 55°11' E 014°21'1515.1
2016-Aug-24 10:34N 55°00' E 014°03'1515.5
2016-Aug-24 09:34N 54°56' E 013°37'1515.4
2016-Aug-24 08:34N 54°51' E 013°12'1515.4
2016-Aug-24 07:33N 54°46' E 012°46'1514.9
2016-Aug-24 06:33N 54°38' E 012°25'2612.8
2016-Aug-24 04:33N 54°24' E 011°47'1514.8
2016-Aug-24 03:34N 54°31' E 011°24'1514.6
2016-Aug-24 02:33N 54°38' E 011°02'1312.9
2016-Aug-24 01:33N 54°49' E 010°52'1313.3
2016-Aug-24 00:33N 55°02' E 011°01'1413.8
2016-Aug-23 23:33N 55°15' E 011°05'1714.4
2016-Aug-23 22:23N 55°30' E 010°52'1314.1
2016-Aug-23 21:28N 55°43' E 010°47'3014.5
2016-Aug-23 19:26N 56°09' E 011°13'1814.9
2016-Aug-23 18:11N 56°24' E 011°30'1015.1
2016-Aug-23 17:32N 56°33' E 011°39'1515.3
2016-Aug-23 16:34N 56°46' E 011°51'1615.3
2016-Aug-23 15:33N 57°01' E 011°42'1515.1
2016-Aug-23 14:33N 57°15' E 011°33'1515.0
2016-Aug-23 13:33N 57°28' E 011°21'1515.2
2016-Aug-23 12:33N 57°39' E 011°01'12916.1
2016-Aug-23 04:33N 57°38' E 006°60'1616.1
2016-Aug-23 03:33N 57°38' E 006°30'29316.3
2016-Aug-22 09:33N 58°41' W 002°32'1717.5
2016-Aug-22 08:34N 58°43' W 003°05'1615.5
2016-Aug-22 07:33N 58°43' W 003°35'1515.5
2016-Aug-22 06:33N 58°43' W 004°05'1514.6
2016-Aug-22 05:33N 58°43' W 004°33'1412.9
2016-Aug-22 04:30N 58°44' W 004°59'  
Track history (hours):
 
Tides and Currents Weather Stations Pressure Air Temp Water Temp Dewpoint Dewpoint Depression Visibility Wind Speed Wind Dir Waves Ship Positions

Afric Star

Last reported at 2016-Aug-27 03:26 UTC. Time now 2016-Aug-29 00:14 UTC.
Position N 60°01' E 029°21'.

Length 158 m; draft 8.4 m.

Type: Cargo ship. MMSI: 636013069.

Date/timePositionNaut miles runAvg speedWind from/ knotsBaromVisibWave heightAir tempDewpointWater temp
2016-Aug-27 03:26N 60°01' E 029°21'0 0.0
2016-Aug-27 02:29N 60°01' E 029°21'0 0.0
2016-Aug-26 20:14N 60°01' E 029°21'0 0.0
2016-Aug-26 12:32N 60°01' E 029°21'5 0.4
2016-Aug-26 01:31N 60°01' E 029°12'1212.4
2016-Aug-26 00:34N 60°02' E 028°48'1514.8
2016-Aug-25 23:33N 60°05' E 028°20'1515.2
2016-Aug-25 22:33N 60°10' E 027°51'1615.0
2016-Aug-25 21:30N 60°03' E 027°22'1414.6
2016-Aug-25 20:33N 59°59' E 026°56'6315.4
2016-Aug-25 16:29N 59°47' E 024°54'2015.4
2016-Aug-25 15:10N 59°42' E 024°15'1015.2
2016-Aug-25 14:32N 59°39' E 023°57'1515.5
2016-Aug-25 13:32N 59°34' E 023°28'1715.5
2016-Aug-25 12:26N 59°29' E 022°56'1315.4
2016-Aug-25 11:33N 59°23' E 022°32'1615.6
2016-Aug-25 10:33N 59°13' E 022°08'1715.7
2016-Aug-25 09:30N 59°03' E 021°43'8115.6
2016-Aug-25 04:19N 57°58' E 020°11'1215.6
2016-Aug-25 03:33N 57°49' E 019°57'1615.6
2016-Aug-25 02:32N 57°36' E 019°38'1515.6
2016-Aug-25 01:33N 57°24' E 019°20'1515.4
2016-Aug-25 00:33N 57°12' E 019°03'1515.4
2016-Aug-24 23:33N 56°60' E 018°46'1515.1
2016-Aug-24 22:34N 56°48' E 018°29'1515.4
2016-Aug-24 21:33N 56°38' E 018°07'1815.7
2016-Aug-24 20:25N 56°27' E 017°41'1315.6
2016-Aug-24 19:34N 56°19' E 017°22'1615.5
2016-Aug-24 18:34N 56°10' E 017°00'1615.5
2016-Aug-24 17:33N 56°01' E 016°37'1515.3
2016-Aug-24 16:33N 55°53' E 016°14'1515.3
2016-Aug-24 15:34N 55°45' E 015°51'1615.6
2016-Aug-24 14:34N 55°38' E 015°26'1615.6
2016-Aug-24 13:34N 55°31' E 015°02'1515.3
2016-Aug-24 12:34N 55°23' E 014°38'1515.3
2016-Aug-24 11:34N 55°11' E 014°21'1515.1
2016-Aug-24 10:34N 55°00' E 014°03'1515.5
2016-Aug-24 09:34N 54°56' E 013°37'1515.4
2016-Aug-24 08:34N 54°51' E 013°12'1515.4
2016-Aug-24 07:33N 54°46' E 012°46'1514.9
2016-Aug-24 06:33N 54°38' E 012°25'2612.8
2016-Aug-24 04:33N 54°24' E 011°47'1514.8
2016-Aug-24 03:34N 54°31' E 011°24'1514.6
2016-Aug-24 02:33N 54°38' E 011°02'1312.9
2016-Aug-24 01:33N 54°49' E 010°52'1313.3
2016-Aug-24 00:33N 55°02' E 011°01'1413.8
2016-Aug-23 23:33N 55°15' E 011°05'1714.4
2016-Aug-23 22:23N 55°30' E 010°52'1314.1
2016-Aug-23 21:28N 55°43' E 010°47'3014.5
2016-Aug-23 19:26N 56°09' E 011°13'1814.9
2016-Aug-23 18:11N 56°24' E 011°30'1015.1
2016-Aug-23 17:32N 56°33' E 011°39'1515.3
2016-Aug-23 16:34N 56°46' E 011°51'1615.3
2016-Aug-23 15:33N 57°01' E 011°42'1515.1
2016-Aug-23 14:33N 57°15' E 011°33'1515.0
2016-Aug-23 13:33N 57°28' E 011°21'1515.2
2016-Aug-23 12:33N 57°39' E 011°01'12916.1
2016-Aug-23 04:33N 57°38' E 006°60'1616.1
2016-Aug-23 03:33N 57°38' E 006°30'29316.3
2016-Aug-22 09:33N 58°41' W 002°32'1717.5
2016-Aug-22 08:34N 58°43' W 003°05'1615.5
2016-Aug-22 07:33N 58°43' W 003°35'1515.5
2016-Aug-22 06:33N 58°43' W 004°05'1514.6
2016-Aug-22 05:33N 58°43' W 004°33'1412.9
2016-Aug-22 04:30N 58°44' W 004°59'  

Dump ship's entire track history